createdAt,value
2019-05-18T00:00:46.221Z,75.30
2019-05-18T00:03:14.822Z,75.50
2019-05-18T00:05:43.541Z,75.70
2019-05-18T00:08:12.144Z,75.80
2019-05-18T00:10:41.007Z,75.80
2019-05-18T00:13:09.698Z,76.30
2019-05-18T00:15:38.447Z,76.70
2019-05-18T00:18:07.065Z,76.80
2019-05-18T00:20:35.921Z,77.10
2019-05-18T00:23:04.491Z,77.30
2019-05-18T00:25:33.023Z,77.50
2019-05-18T00:28:01.623Z,77.50
2019-05-18T00:30:31.977Z,77.50
2019-05-18T00:33:00.523Z,77.30
2019-05-18T00:35:29.382Z,77.90
2019-05-18T00:37:57.920Z,77.20
2019-05-18T00:40:26.435Z,76.60
2019-05-18T00:42:55.001Z,77.70
2019-05-18T00:45:23.464Z,78.10
2019-05-18T00:47:52.005Z,78.20
2019-05-18T00:50:21.150Z,78.50
2019-05-18T00:52:49.787Z,78.60
2019-05-18T00:55:18.407Z,78.50
2019-05-18T00:57:46.949Z,78.60
2019-05-18T01:00:16.411Z,78.90
2019-05-18T01:02:44.952Z,79.00
2019-05-18T01:05:14.056Z,79.00
2019-05-18T01:07:42.529Z,79.00
2019-05-18T01:10:11.712Z,79.40
2019-05-18T01:12:40.544Z,79.80
2019-05-18T01:15:11.024Z,80.10
2019-05-18T01:17:39.565Z,80.30
2019-05-18T01:20:09.075Z,80.10
2019-05-18T01:22:37.712Z,80.10
2019-05-18T01:25:06.906Z,80.20
2019-05-18T01:27:35.524Z,80.20
2019-05-18T01:30:06.240Z,80.40
2019-05-18T01:32:34.863Z,80.40
2019-05-18T01:35:05.743Z,80.40
2019-05-18T01:37:34.325Z,80.30
2019-05-18T01:40:04.167Z,80.10
2019-05-18T01:42:32.677Z,80.10
2019-05-18T01:45:15.403Z,80.00
2019-05-18T01:47:31.501Z,80.10
2019-05-18T01:50:00.060Z,80.50
2019-05-18T01:52:29.814Z,80.70
2019-05-18T01:54:58.384Z,80.80
2019-05-18T01:57:27.080Z,81.20
2019-05-18T01:59:55.548Z,81.20
2019-05-18T02:02:24.201Z,81.30
2019-05-18T02:04:52.967Z,81.20
2019-05-18T02:07:21.458Z,81.50
2019-05-18T02:09:50.270Z,81.60
2019-05-18T02:12:18.898Z,81.50
2019-05-18T02:14:47.482Z,81.40
2019-05-18T02:17:15.992Z,81.40
2019-05-18T02:19:44.922Z,81.40
2019-05-18T02:22:14.906Z,81.60
2019-05-18T02:24:43.714Z,81.60
2019-05-18T02:27:12.461Z,81.80
2019-05-18T02:29:41.078Z,81.90
2019-05-18T02:32:09.671Z,81.70
2019-05-18T02:34:38.798Z,81.60
2019-05-18T02:37:07.423Z,81.50
2019-05-18T02:39:36.090Z,81.70
2019-05-18T02:42:04.964Z,81.90
2019-05-18T02:44:33.687Z,81.90
2019-05-18T02:47:02.290Z,82.10
2019-05-18T02:49:31.043Z,82.20
2019-05-18T02:52:00.025Z,82.20
2019-05-18T02:54:28.646Z,82.20
2019-05-18T02:56:57.359Z,82.30
2019-05-18T02:59:25.906Z,81.40
2019-05-18T03:01:54.751Z,82.10
2019-05-18T03:04:23.391Z,82.00
2019-05-18T03:06:51.896Z,81.90
2019-05-18T03:09:20.798Z,81.90
2019-05-18T03:11:49.719Z,81.80
2019-05-18T03:14:18.214Z,81.70
2019-05-18T03:16:46.806Z,81.60
2019-05-18T03:19:15.665Z,81.60
2019-05-18T03:21:45.525Z,82.00
2019-05-18T03:24:14.067Z,82.10
2019-05-18T03:26:42.840Z,82.20
2019-05-18T03:29:11.453Z,82.10
2019-05-18T03:31:43.208Z,82.00
2019-05-18T03:34:12.054Z,82.00
2019-05-18T03:36:40.605Z,82.00
2019-05-18T03:39:09.529Z,81.90
2019-05-18T03:41:38.317Z,82.50
2019-05-18T03:44:06.842Z,81.60
2019-05-18T03:46:35.545Z,81.80
2019-05-18T03:49:04.376Z,82.00
2019-05-18T03:51:33.340Z,81.50
2019-05-18T03:54:01.954Z,82.20
2019-05-18T03:56:30.658Z,81.90
2019-05-18T03:59:01.915Z,81.90
2019-05-18T04:01:30.589Z,82.10
2019-05-18T04:03:59.425Z,82.30
2019-05-18T04:06:27.953Z,82.30
2019-05-18T04:08:56.514Z,82.20
2019-05-18T04:11:25.605Z,82.80
2019-05-18T04:13:54.109Z,81.90
2019-05-18T04:16:22.689Z,82.00
2019-05-18T04:18:51.417Z,82.20
2019-05-18T04:21:21.314Z,82.40
2019-05-18T04:23:49.804Z,82.50
2019-05-18T04:26:18.287Z,82.60
2019-05-18T04:28:46.789Z,82.70
2019-05-18T04:31:15.631Z,82.70
2019-05-18T04:33:44.339Z,82.60
2019-05-18T04:36:12.879Z,82.50
2019-05-18T04:38:41.491Z,82.90
2019-05-18T04:41:10.639Z,82.90
2019-05-18T04:43:42.509Z,83.10
2019-05-18T04:46:10.364Z,83.40
2019-05-18T04:48:39.143Z,83.20
2019-05-18T04:51:07.957Z,83.30
2019-05-18T04:53:36.737Z,83.40
2019-05-18T04:56:05.396Z,83.40
2019-05-18T04:58:33.946Z,83.50
2019-05-18T05:01:02.740Z,83.70
2019-05-18T05:03:31.437Z,83.70
2019-05-18T05:05:59.963Z,83.80
2019-05-18T05:08:28.632Z,83.90
2019-05-18T05:10:57.840Z,84.10
2019-05-18T05:13:26.450Z,83.50
2019-05-18T05:15:54.982Z,84.30
2019-05-18T05:18:23.704Z,84.40
2019-05-18T05:20:52.214Z,84.40
2019-05-18T05:23:20.695Z,84.50
2019-05-18T05:25:49.670Z,84.40
2019-05-18T05:28:18.212Z,84.50
2019-05-18T05:30:46.995Z,84.60
2019-05-18T05:33:15.644Z,84.60
2019-05-18T05:35:44.185Z,84.70
2019-05-18T05:38:12.721Z,84.60
2019-05-18T05:40:41.261Z,84.60
2019-05-18T05:43:09.889Z,83.90
2019-05-18T05:45:38.370Z,83.90
2019-05-18T05:48:07.089Z,84.60
2019-05-18T05:50:36.704Z,84.60
2019-05-18T05:53:05.651Z,84.70
2019-05-18T05:55:34.372Z,84.70
2019-05-18T05:58:02.910Z,84.60
2019-05-18T06:00:31.590Z,84.60
2019-05-18T06:03:00.313Z,84.40
2019-05-18T06:05:28.855Z,84.30
2019-05-18T06:07:57.329Z,84.30
2019-05-18T06:10:26.065Z,84.30
2019-05-18T06:12:54.609Z,84.30
2019-05-18T06:15:23.142Z,84.50
2019-05-18T06:17:51.730Z,84.40
2019-05-18T06:20:20.282Z,84.40
2019-05-18T06:22:48.849Z,83.60
2019-05-18T06:25:17.657Z,84.30
2019-05-18T06:27:46.259Z,84.20
2019-05-18T06:30:15.220Z,84.00
2019-05-18T06:32:43.898Z,83.90
2019-05-18T06:35:12.685Z,83.70
2019-05-18T06:37:41.281Z,83.60
2019-05-18T06:40:10.692Z,83.40
2019-05-18T06:42:39.229Z,83.00
2019-05-18T06:45:08.204Z,83.80
2019-05-18T06:47:36.845Z,83.80
2019-05-18T06:50:11.207Z,83.10
2019-05-18T06:52:38.149Z,82.50
2019-05-18T06:55:06.932Z,83.10
2019-05-18T06:57:36.597Z,82.90
2019-05-18T07:00:10.179Z,82.90
2019-05-18T07:02:38.803Z,82.70
2019-05-18T07:05:08.041Z,83.00
2019-05-18T07:07:36.611Z,82.00
2019-05-18T07:10:07.249Z,81.60
2019-05-18T07:12:35.866Z,81.10
2019-05-18T07:15:07.178Z,80.90
2019-05-18T07:17:35.972Z,80.50
2019-05-18T07:20:05.560Z,80.30
2019-05-18T07:22:34.180Z,79.80
2019-05-18T07:25:02.924Z,79.40
2019-05-18T07:27:31.399Z,79.30
2019-05-18T07:30:00.048Z,79.00
2019-05-18T07:32:28.967Z,78.50
2019-05-18T07:34:57.575Z,78.00
2019-05-18T07:37:26.126Z,77.50
2019-05-18T07:39:55.132Z,77.30
2019-05-18T07:42:24.958Z,76.70
2019-05-18T07:44:53.427Z,76.10
2019-05-18T07:47:21.917Z,75.70
2019-05-18T07:49:50.391Z,75.00
2019-05-18T07:52:19.329Z,73.70
2019-05-18T07:54:47.874Z,73.10
2019-05-18T07:57:16.373Z,72.00
2019-05-18T07:59:44.873Z,71.20
2019-05-18T08:02:13.983Z,71.00
2019-05-18T08:04:42.461Z,70.60
2019-05-18T08:07:11.055Z,69.80
2019-05-18T08:09:39.841Z,69.40
2019-05-18T08:12:08.392Z,68.50
2019-05-18T08:14:37.023Z,68.00
2019-05-18T08:17:05.689Z,68.10
2019-05-18T08:19:34.360Z,67.30
2019-05-18T08:22:03.245Z,66.30
2019-05-18T08:24:32.493Z,66.20
2019-05-18T08:27:02.278Z,65.20
2019-05-18T08:29:31.153Z,64.60
2019-05-18T08:32:00.126Z,64.40
2019-05-18T08:34:28.741Z,63.90
2019-05-18T08:36:57.301Z,62.80
2019-05-18T08:39:26.195Z,61.80
2019-05-18T08:41:55.129Z,61.40
2019-05-18T08:44:23.811Z,61.30
2019-05-18T08:46:52.661Z,61.20
2019-05-18T08:49:21.183Z,61.90
2019-05-18T08:51:49.856Z,62.10
2019-05-18T08:54:18.682Z,61.80
2019-05-18T08:56:47.314Z,61.60
2019-05-18T08:59:15.795Z,61.20
2019-05-18T09:01:44.728Z,61.30
2019-05-18T09:04:13.280Z,61.30
2019-05-18T09:06:41.878Z,61.00
2019-05-18T09:09:10.850Z,59.70
2019-05-18T09:11:39.758Z,59.40
2019-05-18T09:14:08.323Z,60.00
2019-05-18T09:16:36.929Z,60.70
2019-05-18T09:19:05.602Z,60.80
2019-05-18T09:21:35.256Z,60.00
2019-05-18T09:24:04.025Z,59.10
2019-05-18T09:26:32.573Z,59.60
2019-05-18T09:29:01.518Z,59.60
2019-05-18T09:31:30.489Z,59.20
2019-05-18T09:33:59.008Z,58.60
2019-05-18T09:36:27.557Z,58.10
2019-05-18T09:38:56.209Z,58.20
2019-05-18T09:41:26.029Z,58.40
2019-05-18T09:43:54.502Z,58.50
2019-05-18T09:46:23.005Z,57.90
2019-05-18T09:48:51.481Z,57.80
2019-05-18T09:51:20.458Z,58.10
2019-05-18T09:53:51.529Z,57.80
2019-05-18T09:56:19.504Z,57.00
2019-05-18T09:58:47.982Z,56.70
2019-05-18T10:01:17.101Z,57.00
2019-05-18T10:03:45.590Z,57.60
2019-05-18T10:06:14.127Z,57.80
2019-05-18T10:08:43.943Z,57.50
2019-05-18T10:11:12.742Z,55.90
2019-05-18T10:13:41.297Z,55.40
2019-05-18T10:16:09.947Z,54.80
2019-05-18T10:18:38.495Z,54.50
2019-05-18T10:21:07.087Z,54.30
2019-05-18T10:23:35.706Z,54.30
2019-05-18T10:26:04.475Z,54.10
2019-05-18T10:28:33.013Z,54.30
2019-05-18T10:31:02.478Z,54.70
2019-05-18T10:33:31.020Z,54.50
2019-05-18T10:35:59.526Z,54.10
2019-05-18T10:38:28.031Z,53.80
2019-05-18T10:40:56.577Z,53.10
2019-05-18T10:43:25.157Z,52.20
2019-05-18T10:45:53.936Z,52.30
2019-05-18T10:48:22.525Z,52.30
2019-05-18T10:50:51.321Z,52.50
2019-05-18T10:53:28.276Z,53.00
2019-05-18T10:55:50.998Z,53.30
2019-05-18T10:58:19.515Z,52.60
2019-05-18T11:00:48.286Z,52.00
2019-05-18T11:03:17.046Z,51.70
2019-05-18T11:05:45.598Z,52.50
2019-05-18T11:08:14.112Z,53.50
2019-05-18T11:10:42.894Z,52.80
2019-05-18T11:13:11.358Z,53.00
2019-05-18T11:15:40.389Z,52.10
2019-05-18T11:18:08.929Z,52.00
2019-05-18T11:20:38.477Z,51.80
2019-05-18T11:23:07.381Z,52.00
2019-05-18T11:25:35.967Z,52.90
2019-05-18T11:28:04.537Z,52.80
2019-05-18T11:30:33.403Z,52.10
2019-05-18T11:33:03.437Z,52.50
2019-05-18T11:35:32.068Z,53.10
2019-05-18T11:38:00.629Z,51.60
2019-05-18T11:40:29.751Z,51.10
2019-05-18T11:42:58.241Z,50.30
2019-05-18T11:45:28.217Z,49.40
2019-05-18T11:47:56.807Z,49.00
2019-05-18T11:50:28.039Z,50.10
2019-05-18T11:52:56.886Z,49.30
2019-05-18T11:55:25.656Z,48.60
2019-05-18T11:57:54.266Z,49.80
2019-05-18T12:00:24.053Z,50.60
2019-05-18T12:02:52.675Z,50.60
2019-05-18T12:05:21.359Z,50.20
2019-05-18T12:07:50.016Z,49.60
2019-05-18T12:10:20.231Z,48.50
2019-05-18T12:12:48.864Z,47.70
2019-05-18T12:15:18.214Z,47.20
2019-05-18T12:17:46.777Z,48.00
2019-05-18T12:20:17.408Z,47.60
2019-05-18T12:22:46.121Z,47.70
2019-05-18T12:25:15.006Z,47.90
2019-05-18T12:27:43.741Z,48.20
2019-05-18T12:30:14.297Z,48.30
2019-05-18T12:32:42.912Z,48.60
2019-05-18T12:35:11.886Z,49.00
2019-05-18T12:37:40.446Z,50.00
2019-05-18T12:40:09.938Z,49.20
2019-05-18T12:42:40.075Z,48.60
2019-05-18T12:45:10.443Z,48.20
2019-05-18T12:47:39.229Z,48.30
2019-05-18T12:50:08.745Z,48.10
2019-05-18T12:52:37.566Z,48.40
2019-05-18T12:55:07.291Z,49.10
2019-05-18T12:57:36.728Z,50.40
2019-05-18T13:00:14.380Z,51.40
2019-05-18T13:02:43.060Z,51.60
2019-05-18T13:05:12.067Z,52.30
2019-05-18T13:07:40.733Z,52.10
2019-05-18T13:10:10.819Z,52.30
2019-05-18T13:12:39.617Z,52.60
2019-05-18T13:15:10.492Z,52.10
2019-05-18T13:17:39.129Z,52.00
2019-05-18T13:20:09.676Z,51.90
2019-05-18T13:22:38.498Z,51.50
2019-05-18T13:25:08.110Z,51.30
2019-05-18T13:27:39.870Z,51.50
2019-05-18T13:30:09.401Z,51.20
2019-05-18T13:32:38.024Z,51.10
2019-05-18T13:35:08.172Z,51.50
2019-05-18T13:37:36.982Z,51.70
2019-05-18T13:40:07.410Z,51.00
2019-05-18T13:42:35.962Z,50.80
2019-05-18T13:45:06.791Z,51.40
2019-05-18T13:47:35.308Z,52.00
2019-05-18T13:50:04.859Z,52.10
2019-05-18T13:52:33.525Z,51.90
2019-05-18T13:55:04.775Z,51.90
2019-05-18T13:57:32.474Z,51.70
2019-05-18T14:00:01.282Z,52.00
2019-05-18T14:02:30.238Z,53.10
2019-05-18T14:04:58.773Z,52.20
2019-05-18T14:07:27.445Z,52.00
2019-05-18T14:09:57.856Z,51.40
2019-05-18T14:12:27.808Z,51.30
2019-05-18T14:14:56.523Z,52.10
2019-05-18T14:17:25.188Z,52.10
2019-05-18T14:19:53.772Z,51.60
2019-05-18T14:22:22.676Z,50.90
2019-05-18T14:24:51.300Z,51.30
2019-05-18T14:27:21.385Z,51.80
2019-05-18T14:29:50.193Z,52.50
2019-05-18T14:32:19.225Z,51.90
2019-05-18T14:34:47.721Z,51.50
2019-05-18T14:37:16.447Z,51.20
2019-05-18T14:39:45.059Z,52.00
2019-05-18T14:42:13.673Z,51.80
2019-05-18T14:44:42.303Z,52.00
2019-05-18T14:47:10.841Z,52.50
2019-05-18T14:49:39.396Z,52.40
2019-05-18T14:52:11.803Z,52.10
2019-05-18T14:54:38.384Z,52.10
2019-05-18T14:57:06.916Z,52.50
2019-05-18T14:59:35.643Z,52.10
2019-05-18T15:02:04.602Z,52.50
2019-05-18T15:04:33.218Z,51.90
2019-05-18T15:07:01.821Z,52.40
2019-05-18T15:09:30.516Z,52.40
2019-05-18T15:11:59.185Z,52.50
2019-05-18T15:14:27.788Z,52.40
2019-05-18T15:16:59.332Z,52.20
2019-05-18T15:19:27.864Z,53.50
2019-05-18T15:21:57.048Z,52.80
2019-05-18T15:24:25.606Z,52.50
2019-05-18T15:26:54.212Z,52.70
2019-05-18T15:29:22.719Z,52.80
2019-05-18T15:31:51.538Z,52.30
2019-05-18T15:34:20.081Z,52.80
2019-05-18T15:36:49.135Z,52.90
2019-05-18T15:39:18.180Z,52.70
2019-05-18T15:41:47.142Z,52.70
2019-05-18T15:44:15.817Z,52.90
2019-05-18T15:46:44.327Z,52.80
2019-05-18T15:49:12.892Z,53.00
2019-05-18T15:51:41.944Z,53.30
2019-05-18T15:54:10.494Z,53.10
2019-05-18T15:56:39.048Z,53.90
2019-05-18T15:59:07.700Z,53.30
2019-05-18T16:01:36.566Z,53.50
2019-05-18T16:04:06.687Z,54.00
2019-05-18T16:06:38.346Z,54.00
2019-05-18T16:09:07.486Z,54.40
2019-05-18T16:11:36.237Z,54.70
2019-05-18T16:14:05.274Z,54.80
2019-05-18T16:16:33.767Z,54.80
2019-05-18T16:19:02.452Z,54.70
2019-05-18T16:21:31.623Z,54.20
2019-05-18T16:24:00.189Z,54.30
2019-05-18T16:26:28.760Z,54.30
2019-05-18T16:28:57.323Z,55.20
2019-05-18T16:31:26.162Z,54.60
2019-05-18T16:33:54.677Z,54.30
2019-05-18T16:36:23.470Z,54.10
2019-05-18T16:38:51.942Z,54.10
2019-05-18T16:41:20.491Z,54.00
2019-05-18T16:43:49.213Z,54.30
2019-05-18T16:46:17.890Z,54.20
2019-05-18T16:48:46.457Z,54.00
2019-05-18T16:51:15.381Z,53.90
2019-05-18T16:53:48.022Z,54.00
2019-05-18T16:56:14.190Z,54.10
2019-05-18T16:58:43.203Z,53.90
2019-05-18T17:01:12.045Z,54.30
2019-05-18T17:03:40.586Z,54.40
2019-05-18T17:06:09.387Z,54.50
2019-05-18T17:08:38.021Z,54.70
2019-05-18T17:11:06.857Z,54.50
2019-05-18T17:13:35.627Z,54.60
2019-05-18T17:16:04.175Z,54.80
2019-05-18T17:18:32.799Z,54.90
2019-05-18T17:21:01.701Z,55.10
2019-05-18T17:23:30.339Z,55.00
2019-05-18T17:25:58.918Z,54.70
2019-05-18T17:28:27.559Z,55.20
2019-05-18T17:30:56.347Z,55.20
2019-05-18T17:33:24.960Z,55.30
2019-05-18T17:36:00.459Z,55.40
2019-05-18T17:38:23.980Z,55.60
2019-05-18T17:40:52.719Z,55.30
2019-05-18T17:43:21.399Z,55.20
2019-05-18T17:45:49.937Z,55.50
2019-05-18T17:48:18.501Z,55.80
2019-05-18T17:50:47.428Z,55.70
2019-05-18T17:53:15.988Z,55.80
2019-05-18T17:55:44.595Z,55.80
2019-05-18T17:58:13.076Z,55.50
2019-05-18T18:00:41.676Z,55.70
2019-05-18T18:03:10.274Z,55.60
2019-05-18T18:05:38.965Z,55.40
2019-05-18T18:08:07.577Z,55.70
2019-05-18T18:10:36.464Z,55.80
2019-05-18T18:13:05.539Z,55.60
2019-05-18T18:15:34.109Z,56.30
2019-05-18T18:18:02.798Z,56.00
2019-05-18T18:20:31.918Z,56.50
2019-05-18T18:23:00.507Z,56.90
2019-05-18T18:25:29.079Z,57.50
2019-05-18T18:27:57.710Z,58.00
2019-05-18T18:30:26.442Z,58.40
2019-05-18T18:32:55.035Z,58.60
2019-05-18T18:35:23.851Z,58.40
2019-05-18T18:37:52.361Z,58.10
2019-05-18T18:40:21.251Z,57.90
2019-05-18T18:42:50.211Z,57.80
2019-05-18T18:45:20.520Z,57.60
2019-05-18T18:47:49.066Z,57.30
2019-05-18T18:50:18.814Z,56.80
2019-05-18T18:52:47.436Z,56.80
2019-05-18T18:55:16.639Z,57.00
2019-05-18T18:57:45.188Z,57.40
2019-05-18T19:00:15.909Z,57.60
2019-05-18T19:02:44.440Z,57.90
2019-05-18T19:05:13.953Z,58.40
2019-05-18T19:07:42.437Z,58.80
2019-05-18T19:10:12.856Z,59.30
2019-05-18T19:12:41.490Z,59.70
2019-05-18T19:15:10.760Z,60.90
2019-05-18T19:17:39.377Z,60.70
2019-05-18T19:20:08.845Z,61.00
2019-05-18T19:22:37.431Z,61.30
2019-05-18T19:25:06.573Z,61.60
2019-05-18T19:27:35.227Z,62.10
2019-05-18T19:30:10.047Z,62.40
2019-05-18T19:32:38.261Z,62.30
2019-05-18T19:35:08.384Z,62.40
2019-05-18T19:37:37.306Z,62.70
2019-05-18T19:40:07.685Z,62.80
2019-05-18T19:42:36.318Z,63.30
2019-05-18T19:45:06.851Z,63.70
2019-05-18T19:47:35.470Z,63.80
2019-05-18T19:50:06.426Z,64.70
2019-05-18T19:52:35.130Z,64.20
2019-05-18T19:55:04.926Z,64.40
2019-05-18T19:57:33.797Z,64.50
2019-05-18T20:00:03.402Z,64.90
2019-05-18T20:02:31.999Z,65.10
2019-05-18T20:05:07.409Z,65.40
2019-05-18T20:07:31.094Z,65.50
2019-05-18T20:09:59.643Z,65.70
2019-05-18T20:12:28.549Z,65.90
2019-05-18T20:14:57.143Z,66.00
2019-05-18T20:17:25.672Z,66.40
2019-05-18T20:19:54.390Z,66.60
2019-05-18T20:22:23.099Z,66.90
2019-05-18T20:24:51.611Z,67.20
2019-05-18T20:27:21.991Z,67.30
2019-05-18T20:29:50.592Z,67.50
2019-05-18T20:32:19.570Z,67.70
2019-05-18T20:34:48.111Z,67.90
2019-05-18T20:37:16.644Z,68.10
2019-05-18T20:39:45.594Z,68.40
2019-05-18T20:42:14.255Z,68.60
2019-05-18T20:44:42.791Z,68.70
2019-05-18T20:47:11.354Z,69.10
2019-05-18T20:49:40.149Z,69.30
2019-05-18T20:52:09.028Z,69.60
2019-05-18T20:54:37.623Z,69.80
2019-05-18T20:57:06.529Z,70.10
2019-05-18T20:59:35.140Z,70.30
2019-05-18T21:02:03.739Z,70.40
2019-05-18T21:04:32.328Z,70.80
2019-05-18T21:07:00.774Z,71.00
2019-05-18T21:09:29.443Z,71.20
2019-05-18T21:11:58.225Z,71.50
2019-05-18T21:14:26.790Z,72.30
2019-05-18T21:16:55.248Z,71.60
2019-05-18T21:19:26.726Z,71.70
2019-05-18T21:21:55.642Z,71.80
2019-05-18T21:24:24.169Z,72.00
2019-05-18T21:26:52.801Z,72.10
2019-05-18T21:29:21.384Z,72.20
2019-05-18T21:31:51.195Z,72.40
2019-05-18T21:34:19.764Z,72.50
2019-05-18T21:36:48.380Z,72.60
2019-05-18T21:39:17.391Z,72.50
2019-05-18T21:41:47.269Z,72.50
2019-05-18T21:44:15.828Z,72.50
2019-05-18T21:46:44.394Z,72.60
2019-05-18T21:49:13.214Z,72.50
2019-05-18T21:51:42.097Z,72.60
2019-05-18T21:54:10.719Z,72.70
2019-05-18T21:56:39.435Z,73.00
2019-05-18T21:59:11.706Z,72.90
2019-05-18T22:01:39.076Z,72.80
2019-05-18T22:04:07.825Z,72.80
2019-05-18T22:06:36.454Z,72.80
2019-05-18T22:09:06.781Z,71.90
2019-05-18T22:11:36.137Z,72.90
2019-05-18T22:14:05.346Z,73.20
2019-05-18T22:16:33.878Z,73.10
2019-05-18T22:19:02.709Z,73.10
2019-05-18T22:21:31.305Z,73.20
2019-05-18T22:23:59.896Z,73.30
2019-05-18T22:26:28.409Z,73.30
2019-05-18T22:28:56.892Z,73.40
2019-05-18T22:31:25.525Z,73.50
2019-05-18T22:33:54.082Z,73.80
2019-05-18T22:36:22.631Z,73.80
2019-05-18T22:38:51.195Z,74.20
2019-05-18T22:41:19.922Z,74.30
2019-05-18T22:43:48.405Z,74.30
2019-05-18T22:46:16.951Z,74.30
2019-05-18T22:48:45.516Z,74.40
2019-05-18T22:51:16.269Z,74.60
2019-05-18T22:53:46.599Z,74.60
2019-05-18T22:56:15.385Z,74.70
2019-05-18T22:58:43.954Z,74.80
2019-05-18T23:01:12.649Z,75.00
2019-05-18T23:03:41.226Z,75.10
2019-05-18T23:06:09.698Z,75.50
2019-05-18T23:08:38.177Z,75.60
2019-05-18T23:11:06.977Z,75.50
2019-05-18T23:13:35.470Z,75.50
2019-05-18T23:16:04.083Z,75.60
2019-05-18T23:18:32.925Z,75.70
2019-05-18T23:21:01.642Z,75.70
2019-05-18T23:23:30.178Z,75.60
2019-05-18T23:25:58.759Z,76.30
2019-05-18T23:28:27.339Z,75.70
2019-05-18T23:30:56.012Z,75.80
2019-05-18T23:33:24.650Z,75.90
2019-05-18T23:35:53.234Z,76.00
2019-05-18T23:38:21.793Z,76.00
2019-05-18T23:40:50.459Z,76.10
2019-05-18T23:43:18.943Z,76.00
2019-05-18T23:45:47.493Z,76.30
2019-05-18T23:48:16.284Z,76.20
2019-05-18T23:50:45.003Z,76.30
2019-05-18T23:53:13.500Z,76.30
2019-05-18T23:55:41.999Z,76.30
2019-05-18T23:58:10.476Z,76.20
